sensor_id;sensor_type;location;lat;lon;timestamp;P1;durP1;ratioP1;P2;durP2;ratioP2
41921;SDS011;27609;51.002;5.354;2022-12-18T10:43:48;23.58;;;10.95;;
41921;SDS011;27609;51.002;5.354;2022-12-18T10:46:33;22.52;;;10.77;;
41921;SDS011;27609;51.002;5.354;2022-12-18T10:48:59;23.30;;;11.02;;
41921;SDS011;27609;51.002;5.354;2022-12-18T10:51:34;20.58;;;11.45;;
41921;SDS011;27609;51.002;5.354;2022-12-18T10:56:37;21.70;;;10.77;;
41921;SDS011;27609;51.002;5.354;2022-12-18T10:59:04;24.83;;;11.68;;
41921;SDS011;27609;51.002;5.354;2022-12-18T11:04:20;19.67;;;10.45;;
41921;SDS011;27609;51.002;5.354;2022-12-18T11:07:06;25.00;;;11.85;;
41921;SDS011;27609;51.002;5.354;2022-12-18T11:09:34;22.00;;;10.88;;
41921;SDS011;27609;51.002;5.354;2022-12-18T11:12:02;18.67;;;11.10;;
41921;SDS011;27609;51.002;5.354;2022-12-18T11:14:41;23.80;;;12.10;;
41921;SDS011;27609;51.002;5.354;2022-12-18T11:17:20;24.25;;;12.25;;
41921;SDS011;27609;51.002;5.354;2022-12-18T11:19:57;22.73;;;10.48;;
41921;SDS011;27609;51.002;5.354;2022-12-18T11:22:31;24.10;;;12.27;;
41921;SDS011;27609;51.002;5.354;2022-12-18T11:25:05;24.75;;;11.50;;
41921;SDS011;27609;51.002;5.354;2022-12-18T11:27:55;21.67;;;11.38;;
41921;SDS011;27609;51.002;5.354;2022-12-18T11:30:26;20.10;;;11.13;;
41921;SDS011;27609;51.002;5.354;2022-12-18T11:32:55;21.35;;;10.98;;
41921;SDS011;27609;51.002;5.354;2022-12-18T11:37:59;21.15;;;13.10;;
41921;SDS011;27609;51.002;5.354;2022-12-18T11:43:53;22.75;;;11.25;;
41921;SDS011;27609;51.002;5.354;2022-12-18T11:46:27;23.20;;;12.98;;
41921;SDS011;27609;51.002;5.354;2022-12-18T11:49:00;22.95;;;12.05;;
41921;SDS011;27609;51.002;5.354;2022-12-18T11:51:34;23.77;;;11.60;;
41921;SDS011;27609;51.002;5.354;2022-12-18T11:54:11;25.98;;;12.77;;
41921;SDS011;27609;51.002;5.354;2022-12-18T11:56:49;27.63;;;13.55;;
41921;SDS011;27609;51.002;5.354;2022-12-18T11:59:35;30.08;;;14.10;;
41921;SDS011;27609;51.002;5.354;2022-12-18T12:05:28;23.35;;;12.20;;
41921;SDS011;27609;51.002;5.354;2022-12-18T12:08:35;20.75;;;11.95;;
41921;SDS011;27609;51.002;5.354;2022-12-18T12:16:16;21.30;;;12.02;;
41921;SDS011;27609;51.002;5.354;2022-12-18T12:21:20;22.35;;;12.35;;
41921;SDS011;27609;51.002;5.354;2022-12-18T12:32:24;25.40;;;12.82;;
41921;SDS011;27609;51.002;5.354;2022-12-18T12:37:35;22.38;;;13.00;;
41921;SDS011;27609;51.002;5.354;2022-12-18T12:40:19;27.17;;;14.27;;
41921;SDS011;27609;51.002;5.354;2022-12-18T12:42:48;27.00;;;13.02;;
41921;SDS011;27609;51.002;5.354;2022-12-18T12:45:54;22.05;;;12.75;;
41921;SDS011;27609;51.002;5.354;2022-12-18T12:50:53;22.45;;;12.77;;
41921;SDS011;27609;51.002;5.354;2022-12-18T12:53:23;25.52;;;13.18;;
41921;SDS011;27609;51.002;5.354;2022-12-18T12:55:54;21.45;;;11.90;;
41921;SDS011;27609;51.002;5.354;2022-12-18T12:58:26;29.88;;;14.45;;
41921;SDS011;27609;51.002;5.354;2022-12-18T13:01:04;28.38;;;14.80;;
41921;SDS011;27609;51.002;5.354;2022-12-18T13:03:54;25.13;;;13.80;;
41921;SDS011;27609;51.002;5.354;2022-12-18T13:06:42;24.45;;;13.02;;
41921;SDS011;27609;51.002;5.354;2022-12-18T13:09:29;25.08;;;13.52;;
41921;SDS011;27609;51.002;5.354;2022-12-18T13:12:03;26.80;;;13.20;;
41921;SDS011;27609;51.002;5.354;2022-12-18T13:14:52;29.58;;;13.00;;
41921;SDS011;27609;51.002;5.354;2022-12-18T13:20:14;26.63;;;14.38;;
41921;SDS011;27609;51.002;5.354;2022-12-18T13:22:48;26.02;;;13.40;;
41921;SDS011;27609;51.002;5.354;2022-12-18T13:25:32;29.50;;;13.82;;
41921;SDS011;27609;51.002;5.354;2022-12-18T13:28:10;25.15;;;12.85;;
41921;SDS011;27609;51.002;5.354;2022-12-18T13:41:02;30.27;;;15.10;;
41921;SDS011;27609;51.002;5.354;2022-12-18T13:43:44;26.08;;;14.25;;
41921;SDS011;27609;51.002;5.354;2022-12-18T13:46:25;34.75;;;16.75;;
41921;SDS011;27609;51.002;5.354;2022-12-18T13:51:39;30.40;;;16.13;;
41921;SDS011;27609;51.002;5.354;2022-12-18T13:54:21;32.87;;;16.57;;
41921;SDS011;27609;51.002;5.354;2022-12-18T13:56:49;31.65;;;15.32;;
41921;SDS011;27609;51.002;5.354;2022-12-18T13:59:16;30.80;;;15.75;;
41921;SDS011;27609;51.002;5.354;2022-12-18T14:01:43;35.88;;;16.10;;
41921;SDS011;27609;51.002;5.354;2022-12-18T14:04:19;26.63;;;15.40;;
41921;SDS011;27609;51.002;5.354;2022-12-18T14:06:46;26.83;;;15.00;;
41921;SDS011;27609;51.002;5.354;2022-12-18T14:09:14;24.30;;;14.27;;
41921;SDS011;27609;51.002;5.354;2022-12-18T14:11:46;29.33;;;13.77;;
41921;SDS011;27609;51.002;5.354;2022-12-18T14:14:14;30.05;;;16.05;;
41921;SDS011;27609;51.002;5.354;2022-12-18T14:16:41;29.88;;;15.65;;
41921;SDS011;27609;51.002;5.354;2022-12-18T14:19:08;32.75;;;16.63;;
41921;SDS011;27609;51.002;5.354;2022-12-18T14:21:40;32.33;;;14.75;;
41921;SDS011;27609;51.002;5.354;2022-12-18T14:26:43;26.80;;;15.07;;
41921;SDS011;27609;51.002;5.354;2022-12-18T14:32:03;28.77;;;16.75;;
41921;SDS011;27609;51.002;5.354;2022-12-18T14:34:34;30.98;;;16.90;;
41921;SDS011;27609;51.002;5.354;2022-12-18T14:37:00;33.72;;;17.35;;
41921;SDS011;27609;51.002;5.354;2022-12-18T14:39:26;34.10;;;16.98;;
41921;SDS011;27609;51.002;5.354;2022-12-18T14:41:52;28.80;;;15.88;;
41921;SDS011;27609;51.002;5.354;2022-12-18T14:44:18;25.80;;;15.85;;
41921;SDS011;27609;51.002;5.354;2022-12-18T14:46:46;29.35;;;15.27;;
41921;SDS011;27609;51.002;5.354;2022-12-18T14:51:41;39.17;;;18.90;;
41921;SDS011;27609;51.002;5.354;2022-12-18T14:54:18;38.08;;;18.40;;
41921;SDS011;27609;51.002;5.354;2022-12-18T14:56:46;36.72;;;18.10;;
41921;SDS011;27609;51.002;5.354;2022-12-18T14:59:21;35.67;;;17.23;;
41921;SDS011;27609;51.002;5.354;2022-12-18T15:04:46;33.10;;;15.73;;
41921;SDS011;27609;51.002;5.354;2022-12-18T15:07:16;27.90;;;14.88;;
41921;SDS011;27609;51.002;5.354;2022-12-18T15:09:47;32.45;;;16.48;;
41921;SDS011;27609;51.002;5.354;2022-12-18T15:12:36;47.22;;;18.55;;
41921;SDS011;27609;51.002;5.354;2022-12-18T15:15:05;40.20;;;18.58;;
41921;SDS011;27609;51.002;5.354;2022-12-18T15:17:56;31.52;;;15.88;;
41921;SDS011;27609;51.002;5.354;2022-12-18T15:20:25;42.15;;;20.35;;
41921;SDS011;27609;51.002;5.354;2022-12-18T15:22:51;37.85;;;19.83;;
41921;SDS011;27609;51.002;5.354;2022-12-18T15:25:36;40.13;;;20.95;;
41921;SDS011;27609;51.002;5.354;2022-12-18T15:28:03;40.28;;;21.63;;
41921;SDS011;27609;51.002;5.354;2022-12-18T15:30:38;41.28;;;19.92;;
41921;SDS011;27609;51.002;5.354;2022-12-18T15:33:18;32.38;;;15.60;;
41921;SDS011;27609;51.002;5.354;2022-12-18T15:35:55;35.15;;;16.15;;
41921;SDS011;27609;51.002;5.354;2022-12-18T15:38:25;41.75;;;20.25;;
41921;SDS011;27609;51.002;5.354;2022-12-18T15:40:52;33.42;;;16.75;;
41921;SDS011;27609;51.002;5.354;2022-12-18T15:43:20;33.70;;;17.50;;
41921;SDS011;27609;51.002;5.354;2022-12-18T15:46:03;29.48;;;15.93;;
41921;SDS011;27609;51.002;5.354;2022-12-18T15:48:32;41.97;;;21.90;;
41921;SDS011;27609;51.002;5.354;2022-12-18T15:50:59;50.35;;;21.63;;
41921;SDS011;27609;51.002;5.354;2022-12-18T15:53:27;47.03;;;22.77;;
41921;SDS011;27609;51.002;5.354;2022-12-18T15:55:55;55.90;;;24.25;;
41921;SDS011;27609;51.002;5.354;2022-12-18T15:58:39;57.45;;;26.65;;
41921;SDS011;27609;51.002;5.354;2022-12-18T16:01:04;76.90;;;31.05;;
41921;SDS011;27609;51.002;5.354;2022-12-18T16:03:32;57.45;;;25.33;;
41921;SDS011;27609;51.002;5.354;2022-12-18T16:05:58;60.90;;;29.27;;
41921;SDS011;27609;51.002;5.354;2022-12-18T16:08:26;69.30;;;28.58;;
41921;SDS011;27609;51.002;5.354;2022-12-18T16:10:54;59.42;;;30.30;;
41921;SDS011;27609;51.002;5.354;2022-12-18T16:13:20;59.47;;;28.15;;
41921;SDS011;27609;51.002;5.354;2022-12-18T16:15:46;45.03;;;25.88;;
41921;SDS011;27609;51.002;5.354;2022-12-18T16:18:12;51.72;;;25.40;;
41921;SDS011;27609;51.002;5.354;2022-12-18T16:20:37;51.75;;;27.48;;
41921;SDS011;27609;51.002;5.354;2022-12-18T16:23:04;45.47;;;26.48;;
41921;SDS011;27609;51.002;5.354;2022-12-18T16:25:29;44.45;;;24.33;;
41921;SDS011;27609;51.002;5.354;2022-12-18T16:27:56;56.38;;;27.60;;
41921;SDS011;27609;51.002;5.354;2022-12-18T16:30:26;44.33;;;24.15;;
41921;SDS011;27609;51.002;5.354;2022-12-18T16:32:55;53.03;;;24.85;;
41921;SDS011;27609;51.002;5.354;2022-12-18T16:35:21;47.33;;;23.50;;
41921;SDS011;27609;51.002;5.354;2022-12-18T16:37:47;51.63;;;24.50;;
41921;SDS011;27609;51.002;5.354;2022-12-18T16:40:14;41.40;;;19.48;;
41921;SDS011;27609;51.002;5.354;2022-12-18T16:42:43;43.70;;;22.50;;
41921;SDS011;27609;51.002;5.354;2022-12-18T16:45:14;38.90;;;18.05;;
41921;SDS011;27609;51.002;5.354;2022-12-18T16:47:48;36.28;;;18.52;;
41921;SDS011;27609;51.002;5.354;2022-12-18T16:53:07;36.88;;;17.45;;
41921;SDS011;27609;51.002;5.354;2022-12-18T16:55:37;35.83;;;17.38;;
41921;SDS011;27609;51.002;5.354;2022-12-18T16:58:02;33.27;;;17.60;;
41921;SDS011;27609;51.002;5.354;2022-12-18T17:00:28;37.00;;;17.52;;
41921;SDS011;27609;51.002;5.354;2022-12-18T17:02:54;38.38;;;18.00;;
41921;SDS011;27609;51.002;5.354;2022-12-18T17:05:19;28.48;;;15.52;;
41921;SDS011;27609;51.002;5.354;2022-12-18T17:07:45;31.67;;;16.42;;
41921;SDS011;27609;51.002;5.354;2022-12-18T17:12:39;35.55;;;17.20;;
41921;SDS011;27609;51.002;5.354;2022-12-18T17:15:05;33.83;;;16.73;;
41921;SDS011;27609;51.002;5.354;2022-12-18T17:17:31;29.48;;;16.40;;
41921;SDS011;27609;51.002;5.354;2022-12-18T17:19:57;33.15;;;16.17;;
41921;SDS011;27609;51.002;5.354;2022-12-18T17:22:25;32.83;;;16.33;;
41921;SDS011;27609;51.002;5.354;2022-12-18T17:24:50;36.35;;;17.23;;
41921;SDS011;27609;51.002;5.354;2022-12-18T17:27:18;30.13;;;15.55;;
41921;SDS011;27609;51.002;5.354;2022-12-18T17:29:46;33.22;;;18.00;;
41921;SDS011;27609;51.002;5.354;2022-12-18T17:32:11;31.95;;;15.93;;
41921;SDS011;27609;51.002;5.354;2022-12-18T17:34:37;35.83;;;16.27;;
41921;SDS011;27609;51.002;5.354;2022-12-18T17:39:31;28.20;;;15.07;;
41921;SDS011;27609;51.002;5.354;2022-12-18T17:42:04;34.60;;;18.00;;
41921;SDS011;27609;51.002;5.354;2022-12-18T17:44:33;32.50;;;15.70;;
41921;SDS011;27609;51.002;5.354;2022-12-18T17:46:58;32.10;;;16.08;;
41921;SDS011;27609;51.002;5.354;2022-12-18T17:49:26;33.88;;;17.73;;
41921;SDS011;27609;51.002;5.354;2022-12-18T17:54:22;27.73;;;14.48;;
41921;SDS011;27609;51.002;5.354;2022-12-18T17:56:47;34.35;;;18.05;;
41921;SDS011;27609;51.002;5.354;2022-12-18T17:59:14;36.15;;;18.70;;
41921;SDS011;27609;51.002;5.354;2022-12-18T18:01:40;34.25;;;17.27;;
41921;SDS011;27609;51.002;5.354;2022-12-18T18:04:06;40.90;;;19.83;;
41921;SDS011;27609;51.002;5.354;2022-12-18T18:06:34;42.05;;;19.55;;
41921;SDS011;27609;51.002;5.354;2022-12-18T18:09:07;41.22;;;19.10;;
41921;SDS011;27609;51.002;5.354;2022-12-18T18:11:34;37.03;;;17.63;;
41921;SDS011;27609;51.002;5.354;2022-12-18T18:14:19;42.67;;;18.02;;
41921;SDS011;27609;51.002;5.354;2022-12-18T18:16:49;31.13;;;15.65;;
41921;SDS011;27609;51.002;5.354;2022-12-18T18:21:44;29.90;;;15.98;;
41921;SDS011;27609;51.002;5.354;2022-12-18T18:24:12;28.52;;;14.93;;
41921;SDS011;27609;51.002;5.354;2022-12-18T18:26:39;23.08;;;13.45;;
41921;SDS011;27609;51.002;5.354;2022-12-18T18:29:06;30.65;;;14.48;;
41921;SDS011;27609;51.002;5.354;2022-12-18T18:31:34;24.65;;;13.30;;
41921;SDS011;27609;51.002;5.354;2022-12-18T18:34:00;29.35;;;15.35;;
41921;SDS011;27609;51.002;5.354;2022-12-18T18:36:26;33.33;;;14.73;;
41921;SDS011;27609;51.002;5.354;2022-12-18T18:38:57;34.47;;;14.77;;
41921;SDS011;27609;51.002;5.354;2022-12-18T18:41:25;28.75;;;13.93;;
41921;SDS011;27609;51.002;5.354;2022-12-18T18:43:56;24.42;;;12.63;;
41921;SDS011;27609;51.002;5.354;2022-12-18T18:46:23;26.52;;;14.57;;
41921;SDS011;27609;51.002;5.354;2022-12-18T18:48:49;34.55;;;16.27;;
41921;SDS011;27609;51.002;5.354;2022-12-18T18:51:16;30.25;;;14.77;;
41921;SDS011;27609;51.002;5.354;2022-12-18T18:53:44;37.17;;;15.98;;
41921;SDS011;27609;51.002;5.354;2022-12-18T18:56:13;34.75;;;18.42;;
41921;SDS011;27609;51.002;5.354;2022-12-18T18:58:40;31.73;;;14.43;;
41921;SDS011;27609;51.002;5.354;2022-12-18T19:01:08;29.48;;;15.85;;
41921;SDS011;27609;51.002;5.354;2022-12-18T19:03:39;30.23;;;15.63;;
41921;SDS011;27609;51.002;5.354;2022-12-18T19:06:05;34.05;;;14.30;;
41921;SDS011;27609;51.002;5.354;2022-12-18T19:08:32;30.20;;;15.90;;
41921;SDS011;27609;51.002;5.354;2022-12-18T19:11:03;33.00;;;15.20;;
41921;SDS011;27609;51.002;5.354;2022-12-18T19:13:57;35.50;;;16.98;;
41921;SDS011;27609;51.002;5.354;2022-12-18T19:16:24;28.23;;;13.43;;
41921;SDS011;27609;51.002;5.354;2022-12-18T19:18:50;30.50;;;15.75;;
41921;SDS011;27609;51.002;5.354;2022-12-18T19:21:17;30.65;;;14.25;;
41921;SDS011;27609;51.002;5.354;2022-12-18T19:23:43;31.65;;;14.15;;
41921;SDS011;27609;51.002;5.354;2022-12-18T19:26:10;30.40;;;14.55;;
41921;SDS011;27609;51.002;5.354;2022-12-18T19:28:36;35.83;;;15.57;;
41921;SDS011;27609;51.002;5.354;2022-12-18T19:31:03;30.75;;;14.65;;
41921;SDS011;27609;51.002;5.354;2022-12-18T19:33:33;32.03;;;13.88;;
41921;SDS011;27609;51.002;5.354;2022-12-18T19:36:12;37.08;;;15.35;;
41921;SDS011;27609;51.002;5.354;2022-12-18T19:38:48;32.00;;;14.73;;
41921;SDS011;27609;51.002;5.354;2022-12-18T19:41:15;32.13;;;15.25;;
41921;SDS011;27609;51.002;5.354;2022-12-18T19:43:41;37.10;;;15.90;;
41921;SDS011;27609;51.002;5.354;2022-12-18T19:46:09;35.65;;;15.00;;
41921;SDS011;27609;51.002;5.354;2022-12-18T19:48:38;32.63;;;15.73;;
41921;SDS011;27609;51.002;5.354;2022-12-18T19:51:08;31.80;;;15.85;;
41921;SDS011;27609;51.002;5.354;2022-12-18T19:53:38;27.95;;;14.02;;
41921;SDS011;27609;51.002;5.354;2022-12-18T19:58:34;30.70;;;13.30;;
41921;SDS011;27609;51.002;5.354;2022-12-18T20:01:00;31.13;;;14.02;;
41921;SDS011;27609;51.002;5.354;2022-12-18T20:03:26;27.00;;;13.40;;
41921;SDS011;27609;51.002;5.354;2022-12-18T20:05:52;32.88;;;15.57;;
41921;SDS011;27609;51.002;5.354;2022-12-18T20:08:18;33.55;;;16.35;;
41921;SDS011;27609;51.002;5.354;2022-12-18T20:10:44;34.88;;;15.93;;
41921;SDS011;27609;51.002;5.354;2022-12-18T20:13:13;33.83;;;16.08;;
41921;SDS011;27609;51.002;5.354;2022-12-18T20:15:39;33.35;;;14.63;;
41921;SDS011;27609;51.002;5.354;2022-12-18T20:18:05;36.80;;;16.98;;
41921;SDS011;27609;51.002;5.354;2022-12-18T20:23:02;40.70;;;18.92;;
41921;SDS011;27609;51.002;5.354;2022-12-18T20:25:31;47.28;;;18.15;;
41921;SDS011;27609;51.002;5.354;2022-12-18T20:27:56;37.63;;;16.10;;
41921;SDS011;27609;51.002;5.354;2022-12-18T20:30:22;34.33;;;15.98;;
41921;SDS011;27609;51.002;5.354;2022-12-18T20:32:48;33.92;;;14.27;;
41921;SDS011;27609;51.002;5.354;2022-12-18T20:35:13;41.75;;;16.45;;
41921;SDS011;27609;51.002;5.354;2022-12-18T20:37:39;32.70;;;18.13;;
41921;SDS011;27609;51.002;5.354;2022-12-18T20:40:05;44.70;;;19.00;;
41921;SDS011;27609;51.002;5.354;2022-12-18T20:42:31;45.55;;;19.70;;
41921;SDS011;27609;51.002;5.354;2022-12-18T20:44:57;37.17;;;16.92;;
41921;SDS011;27609;51.002;5.354;2022-12-18T20:47:22;39.97;;;17.80;;
41921;SDS011;27609;51.002;5.354;2022-12-18T20:49:48;37.67;;;15.27;;
41921;SDS011;27609;51.002;5.354;2022-12-18T20:52:14;40.88;;;17.25;;
41921;SDS011;27609;51.002;5.354;2022-12-18T20:54:40;36.38;;;14.18;;
41921;SDS011;27609;51.002;5.354;2022-12-18T20:57:06;45.97;;;18.40;;
41921;SDS011;27609;51.002;5.354;2022-12-18T20:59:32;39.13;;;15.88;;
41921;SDS011;27609;51.002;5.354;2022-12-18T21:01:58;44.58;;;19.20;;
41921;SDS011;27609;51.002;5.354;2022-12-18T21:04:26;57.70;;;16.77;;
41921;SDS011;27609;51.002;5.354;2022-12-18T21:06:52;43.17;;;19.58;;
41921;SDS011;27609;51.002;5.354;2022-12-18T21:09:18;34.70;;;14.90;;
41921;SDS011;27609;51.002;5.354;2022-12-18T21:11:49;53.03;;;18.73;;
41921;SDS011;27609;51.002;5.354;2022-12-18T21:14:33;40.17;;;17.38;;
41921;SDS011;27609;51.002;5.354;2022-12-18T21:16:59;32.10;;;15.77;;
41921;SDS011;27609;51.002;5.354;2022-12-18T21:19:28;43.78;;;16.77;;
41921;SDS011;27609;51.002;5.354;2022-12-18T21:21:54;36.03;;;13.13;;
41921;SDS011;27609;51.002;5.354;2022-12-18T21:24:21;45.33;;;18.00;;
41921;SDS011;27609;51.002;5.354;2022-12-18T21:26:48;45.20;;;17.30;;
41921;SDS011;27609;51.002;5.354;2022-12-18T21:29:24;33.85;;;16.60;;
41921;SDS011;27609;51.002;5.354;2022-12-18T21:31:51;39.30;;;14.20;;
41921;SDS011;27609;51.002;5.354;2022-12-18T21:34:19;39.67;;;16.88;;
41921;SDS011;27609;51.002;5.354;2022-12-18T21:36:48;35.85;;;18.60;;
41921;SDS011;27609;51.002;5.354;2022-12-18T21:39:14;32.25;;;15.57;;
41921;SDS011;27609;51.002;5.354;2022-12-18T21:41:46;46.65;;;19.05;;
41921;SDS011;27609;51.002;5.354;2022-12-18T21:44:30;43.58;;;16.23;;
41921;SDS011;27609;51.002;5.354;2022-12-18T21:46:57;48.53;;;19.60;;
41921;SDS011;27609;51.002;5.354;2022-12-18T21:49:23;38.78;;;16.63;;
41921;SDS011;27609;51.002;5.354;2022-12-18T21:51:49;47.40;;;19.48;;
41921;SDS011;27609;51.002;5.354;2022-12-18T21:54:17;47.67;;;22.08;;
41921;SDS011;27609;51.002;5.354;2022-12-18T21:56:44;42.83;;;19.83;;
41921;SDS011;27609;51.002;5.354;2022-12-18T21:59:12;46.70;;;20.73;;
41921;SDS011;27609;51.002;5.354;2022-12-18T22:01:40;40.97;;;18.73;;
41921;SDS011;27609;51.002;5.354;2022-12-18T22:04:05;42.05;;;20.58;;
41921;SDS011;27609;51.002;5.354;2022-12-18T22:06:31;45.85;;;20.42;;
41921;SDS011;27609;51.002;5.354;2022-12-18T22:08:57;46.25;;;20.20;;
41921;SDS011;27609;51.002;5.354;2022-12-18T22:11:22;41.38;;;17.55;;
41921;SDS011;27609;51.002;5.354;2022-12-18T22:13:48;49.75;;;21.35;;
41921;SDS011;27609;51.002;5.354;2022-12-18T22:16:13;45.13;;;19.38;;
41921;SDS011;27609;51.002;5.354;2022-12-18T22:18:39;41.20;;;19.58;;
41921;SDS011;27609;51.002;5.354;2022-12-18T22:21:05;47.53;;;21.20;;
41921;SDS011;27609;51.002;5.354;2022-12-18T22:23:31;41.67;;;17.52;;
41921;SDS011;27609;51.002;5.354;2022-12-18T22:25:56;40.65;;;17.20;;
41921;SDS011;27609;51.002;5.354;2022-12-18T22:28:22;42.22;;;18.10;;
41921;SDS011;27609;51.002;5.354;2022-12-18T22:31:06;42.83;;;18.25;;
41921;SDS011;27609;51.002;5.354;2022-12-18T22:33:32;40.28;;;16.55;;
41921;SDS011;27609;51.002;5.354;2022-12-18T22:36:03;39.60;;;17.98;;
41921;SDS011;27609;51.002;5.354;2022-12-18T22:38:30;40.63;;;19.25;;
41921;SDS011;27609;51.002;5.354;2022-12-18T22:40:56;35.75;;;15.23;;
41921;SDS011;27609;51.002;5.354;2022-12-18T22:43:22;44.67;;;19.25;;
41921;SDS011;27609;51.002;5.354;2022-12-18T22:45:47;35.78;;;15.30;;
41921;SDS011;27609;51.002;5.354;2022-12-18T22:48:13;43.75;;;18.13;;
41921;SDS011;27609;51.002;5.354;2022-12-18T22:50:39;36.95;;;15.85;;
41921;SDS011;27609;51.002;5.354;2022-12-18T22:53:04;36.88;;;15.30;;
41921;SDS011;27609;51.002;5.354;2022-12-18T22:55:33;43.85;;;16.92;;
41921;SDS011;27609;51.002;5.354;2022-12-18T22:57:58;37.60;;;14.68;;
41921;SDS011;27609;51.002;5.354;2022-12-18T23:00:24;29.35;;;15.02;;
41921;SDS011;27609;51.002;5.354;2022-12-18T23:02:50;44.55;;;17.88;;
41921;SDS011;27609;51.002;5.354;2022-12-18T23:05:16;39.58;;;15.38;;
41921;SDS011;27609;51.002;5.354;2022-12-18T23:07:42;43.92;;;18.48;;
41921;SDS011;27609;51.002;5.354;2022-12-18T23:10:08;39.70;;;18.17;;
41921;SDS011;27609;51.002;5.354;2022-12-18T23:12:33;31.75;;;13.52;;
41921;SDS011;27609;51.002;5.354;2022-12-18T23:15:01;37.80;;;16.80;;
41921;SDS011;27609;51.002;5.354;2022-12-18T23:17:28;40.05;;;16.02;;
41921;SDS011;27609;51.002;5.354;2022-12-18T23:19:53;35.78;;;17.10;;
41921;SDS011;27609;51.002;5.354;2022-12-18T23:22:19;43.45;;;16.48;;
41921;SDS011;27609;51.002;5.354;2022-12-18T23:24:45;43.13;;;17.70;;
41921;SDS011;27609;51.002;5.354;2022-12-18T23:27:11;40.13;;;16.88;;
41921;SDS011;27609;51.002;5.354;2022-12-18T23:29:36;41.20;;;17.48;;
41921;SDS011;27609;51.002;5.354;2022-12-18T23:32:05;44.90;;;17.50;;
41921;SDS011;27609;51.002;5.354;2022-12-18T23:34:30;40.60;;;17.10;;
41921;SDS011;27609;51.002;5.354;2022-12-18T23:36:56;26.17;;;13.70;;
41921;SDS011;27609;51.002;5.354;2022-12-18T23:39:22;41.53;;;18.00;;
41921;SDS011;27609;51.002;5.354;2022-12-18T23:44:19;41.75;;;15.18;;
41921;SDS011;27609;51.002;5.354;2022-12-18T23:46:45;36.72;;;15.27;;
41921;SDS011;27609;51.002;5.354;2022-12-18T23:49:10;34.13;;;16.35;;
41921;SDS011;27609;51.002;5.354;2022-12-18T23:51:41;39.83;;;18.08;;
41921;SDS011;27609;51.002;5.354;2022-12-18T23:54:07;32.75;;;14.00;;
41921;SDS011;27609;51.002;5.354;2022-12-18T23:56:33;21.70;;;9.85;;
41921;SDS011;27609;51.002;5.354;2022-12-18T23:58:59;33.42;;;13.68;;
